Time;durP1;ratioP1;P1;durP2;ratioP2;P2;SDS_P1;SDS_P2;PMS_P1;PMS_P2;Temp;Humidity;BMP_temperature;BMP_pressure;BME280_temperature;BME280_humidity;BME280_pressure;Samples;Min_cycle;Max_cycle;Signal;HPM_P1;HPM_P2
2021/12/06 00:01:36;;;;;;;32.38;18.48;;;;;;;2.31;91.68;99555.66;5005097;28;20038;-71
2021/12/06 00:04:12;;;;;;;37.95;17.58;;;;;;;2.30;92.06;99555.72;5026122;28;20034;-72
2021/12/06 00:06:40;;;;;;;40.05;19.83;;;;;;;2.25;92.31;99562.84;5010858;28;20026;-73
2021/12/06 00:09:13;;;;;;;38.45;19.58;;;;;;;2.25;92.15;99555.09;5011008;28;20054;-72
2021/12/06 00:11:39;;;;;;;44.78;21.33;;;;;;;2.24;91.88;99556.00;5006785;28;20064;-72
2021/12/06 00:14:05;;;;;;;37.40;20.40;;;;;;;2.27;91.78;99558.47;5011166;28;20105;-73
2021/12/06 00:16:32;;;;;;;44.97;21.38;;;;;;;2.31;92.15;99557.41;5007285;28;20452;-73
2021/12/06 00:18:57;;;;;;;46.42;21.65;;;;;;;2.27;92.46;99553.28;5010293;28;20107;-72
2021/12/06 00:21:23;;;;;;;37.28;19.77;;;;;;;2.21;92.27;99556.13;5010553;28;20034;-72
2021/12/06 00:23:49;;;;;;;38.40;19.50;;;;;;;2.17;92.64;99558.84;5011541;28;20037;-73
2021/12/06 00:26:15;;;;;;;39.10;18.48;;;;;;;2.12;92.28;99565.16;5010778;28;20030;-72
2021/12/06 00:28:43;;;;;;;44.33;19.73;;;;;;;2.07;92.63;99572.25;5010959;28;20052;-71
2021/12/06 00:31:09;;;;;;;42.80;19.63;;;;;;;2.02;92.88;99569.88;5010069;28;20084;-71
2021/12/06 00:33:34;;;;;;;41.55;20.27;;;;;;;1.97;92.85;99571.00;5010435;28;20034;-72
2021/12/06 00:36:04;;;;;;;42.00;19.60;;;;;;;1.97;92.99;99578.75;5011555;28;20021;-72
2021/12/06 00:38:36;;;;;;;39.50;17.55;;;;;;;1.91;92.99;99585.00;5010398;28;20064;-73
2021/12/06 00:41:04;;;;;;;41.70;20.15;;;;;;;1.90;93.24;99583.34;5010461;28;20941;-71
2021/12/06 00:43:30;;;;;;;45.78;20.38;;;;;;;1.81;93.80;99584.53;5009801;28;20134;-73
2021/12/06 00:45:55;;;;;;;52.85;19.67;;;;;;;1.78;94.19;99591.59;5009699;28;20105;-73
2021/12/06 00:48:21;;;;;;;46.97;21.95;;;;;;;1.67;94.66;99592.91;5010291;28;20022;-73
2021/12/06 00:50:46;;;;;;;67.07;25.30;;;;;;;1.68;94.32;99588.56;5007134;28;20219;-73
2021/12/06 00:53:12;;;;;;;49.92;22.90;;;;;;;1.67;94.70;99592.91;5009102;28;20030;-72
2021/12/06 00:55:38;;;;;;;46.63;20.77;;;;;;;1.72;94.32;99584.13;5008904;28;20030;-72
2021/12/06 00:58:03;;;;;;;45.00;19.80;;;;;;;1.75;94.23;99604.66;5009895;28;20522;-72
2021/12/06 01:00:51;;;;;;;37.05;18.35;;;;;;;1.74;93.46;99600.38;5009831;28;20026;-72
2021/12/06 01:03:20;;;;;;;42.75;19.90;;;;;;;1.75;93.50;99604.66;5007067;28;20032;-73
2021/12/06 01:05:46;;;;;;;36.70;17.15;;;;;;;1.81;93.25;99607.81;5009977;28;20037;-73
2021/12/06 01:08:12;;;;;;;37.78;17.13;;;;;;;1.78;92.95;99601.91;5006872;28;20030;-72
2021/12/06 01:10:41;;;;;;;36.72;17.73;;;;;;;1.78;92.72;99610.53;5008702;28;20033;-72
2021/12/06 01:13:08;;;;;;;36.72;18.13;;;;;;;1.81;92.72;99623.31;5009938;28;20052;-73
2021/12/06 01:15:37;;;;;;;36.30;18.35;;;;;;;1.68;92.37;99619.56;5001389;28;20021;-72
2021/12/06 01:18:05;;;;;;;44.70;18.88;;;;;;;1.74;92.65;99623.63;5023124;28;20088;-71
2021/12/06 01:20:35;;;;;;;41.72;18.25;;;;;;;1.78;92.53;99622.59;5008122;28;20030;-72
2021/12/06 01:23:11;;;;;;;39.75;17.67;;;;;;;1.76;92.50;99627.84;5004651;28;20040;-72
2021/12/06 01:26:11;;;;;;;39.22;19.17;;;;;;;1.72;92.54;99628.88;5009510;28;20057;-72
2021/12/06 01:31:32;;;;;;;48.60;19.63;;;;;;;1.74;93.01;99646.88;5009654;28;20038;-72
2021/12/06 01:39:33;;;;;;;45.55;20.45;;;;;;;1.72;92.26;99640.97;5005272;28;20033;-73
2021/12/06 01:42:04;;;;;;;45.17;20.02;;;;;;;1.73;92.63;99642.63;5022907;28;20022;-73
2021/12/06 01:44:33;;;;;;;45.90;19.10;;;;;;;1.74;93.04;99654.66;5009434;28;20034;-73
2021/12/06 01:47:04;;;;;;;44.83;19.95;;;;;;;1.74;92.69;99652.06;5013610;28;20537;-72
2021/12/06 01:49:34;;;;;;;46.83;19.80;;;;;;;1.77;93.06;99663.13;5009253;28;20037;-71
2021/12/06 01:52:01;;;;;;;;;;;;;;;1.82;92.95;99657.78;5009286;28;20033;-71
2021/12/06 01:54:26;;;;;;;45.80;20.35;;;;;;;1.83;92.79;99654.28;5009006;28;19917;-72
2021/12/06 01:56:52;;;;;;;49.78;21.02;;;;;;;1.70;92.97;99667.69;5009401;28;20100;-71
2021/12/06 01:59:19;;;;;;;49.40;22.13;;;;;;;1.69;92.99;99660.00;5007684;28;20037;-71
2021/12/06 02:01:44;;;;;;;50.25;22.23;;;;;;;1.71;93.43;99663.38;5001956;28;20034;-71
2021/12/06 02:04:10;;;;;;;54.58;22.75;;;;;;;1.69;92.97;99658.25;5009282;28;20105;-70
2021/12/06 02:06:37;;;;;;;54.92;22.23;;;;;;;1.62;93.69;99659.41;5008642;28;20025;-71
2021/12/06 02:09:05;;;;;;;45.20;20.40;;;;;;;1.64;93.60;99657.63;5008681;28;20076;-71
2021/12/06 02:11:34;;;;;;;44.42;20.48;;;;;;;1.66;93.21;99665.28;5007342;28;20029;-70
2021/12/06 02:14:20;;;;;;;44.40;20.15;;;;;;;1.66;93.40;99655.78;5004214;28;20040;-72
2021/12/06 02:17:01;;;;;;;46.47;20.10;;;;;;;1.68;92.92;99658.34;5006784;28;20038;-71
2021/12/06 02:19:32;;;;;;;42.67;19.33;;;;;;;1.63;92.97;99668.00;5005613;28;20522;-71
2021/12/06 02:21:59;;;;;;;40.10;18.45;;;;;;;1.64;93.29;99659.38;5008516;28;20034;-71
2021/12/06 02:24:25;;;;;;;40.88;19.13;;;;;;;1.69;93.09;99675.50;5008420;28;20475;-69
2021/12/06 02:26:51;;;;;;;43.28;19.67;;;;;;;1.66;93.18;99666.13;5008843;28;20036;-72
2021/12/06 02:29:16;;;;;;;43.70;18.23;;;;;;;1.59;93.04;99666.44;5007976;28;20504;-72
2021/12/06 02:31:42;;;;;;;40.63;17.45;;;;;;;1.64;93.10;99657.63;5005011;28;20041;-71
2021/12/06 02:34:07;;;;;;;35.53;17.88;;;;;;;1.67;92.95;99662.66;5006587;28;20036;-72
2021/12/06 02:36:33;;;;;;;36.95;18.23;;;;;;;1.60;92.63;99662.97;5007140;28;20088;-72
2021/12/06 02:38:58;;;;;;;37.92;16.88;;;;;;;1.59;92.77;99656.09;5010606;28;20036;-71
2021/12/06 02:41:24;;;;;;;42.55;17.02;;;;;;;1.66;93.34;99658.38;5008476;28;20038;-70
2021/12/06 02:43:52;;;;;;;39.28;17.95;;;;;;;1.69;92.43;99655.69;5006967;28;20601;-72
2021/12/06 02:46:18;;;;;;;45.55;19.80;;;;;;;1.71;92.38;99645.28;5007946;28;20104;-71
2021/12/06 02:48:43;;;;;;;44.00;18.23;;;;;;;1.78;91.95;99658.78;5008528;28;20038;-71
2021/12/06 02:51:09;;;;;;;38.35;18.30;;;;;;;1.80;91.93;99664.75;5006058;28;20476;-71
2021/12/06 02:53:36;;;;;;;39.33;18.27;;;;;;;1.79;91.76;99661.31;5008368;28;20057;-72
2021/12/06 02:56:16;;;;;;;39.95;17.80;;;;;;;1.77;91.48;99672.63;5008950;28;20073;-72
2021/12/06 03:01:14;;;;;;;38.05;17.63;;;;;;;1.73;91.57;99673.66;5006800;28;20061;-72
2021/12/06 03:03:40;;;;;;;46.60;18.00;;;;;;;1.73;91.94;99681.41;5005801;28;20017;-72
2021/12/06 03:06:06;;;;;;;40.83;19.25;;;;;;;1.78;91.46;99676.88;5007622;28;20028;-73
2021/12/06 03:08:59;;;;;;;43.50;18.88;;;;;;;1.69;91.90;99694.44;5008291;28;20026;-72
2021/12/06 03:11:47;;;;;;;40.65;18.27;;;;;;;1.75;92.70;99693.38;5006817;28;20088;-72
2021/12/06 03:14:18;;;;;;;49.30;20.95;;;;;;;1.77;92.39;99698.47;5005139;28;20083;-72
2021/12/06 03:16:44;;;;;;;47.05;19.98;;;;;;;1.82;92.30;99702.56;5007440;28;20030;-71
2021/12/06 03:19:09;;;;;;;44.97;19.80;;;;;;;1.82;92.16;99699.13;5008670;28;20037;-71
2021/12/06 03:21:35;;;;;;;45.80;20.67;;;;;;;1.78;92.29;99702.72;5001830;28;20037;-71
2021/12/06 03:24:02;;;;;;;43.25;19.92;;;;;;;1.78;92.05;99701.00;5009207;28;20083;-70
2021/12/06 03:26:28;;;;;;;50.03;21.17;;;;;;;1.75;92.13;99703.69;5008363;28;20030;-71
2021/12/06 03:28:54;;;;;;;51.30;21.23;;;;;;;1.77;92.48;99707.03;5008011;28;20033;-71
2021/12/06 03:31:21;;;;;;;49.85;20.42;;;;;;;1.73;92.42;99700.31;5009716;28;20128;-71
2021/12/06 03:33:50;;;;;;;57.33;20.55;;;;;;;1.63;92.98;99712.78;5025574;28;20112;-71
2021/12/06 03:36:18;;;;;;;;;;;;;;;1.62;93.21;99708.50;5012497;28;20022;-71
2021/12/06 03:38:44;;;;;;;55.58;22.10;;;;;;;1.57;93.26;99704.44;5026291;28;20421;-72
2021/12/06 03:41:11;;;;;;;55.08;21.85;;;;;;;1.58;93.26;99712.09;5010424;28;20038;-72
2021/12/06 03:43:38;;;;;;;62.42;23.08;;;;;;;1.61;93.41;99717.16;5010904;28;20034;-70
2021/12/06 03:46:04;;;;;;;58.95;22.80;;;;;;;1.63;93.30;99715.38;5010496;28;20382;-69
2021/12/06 03:48:30;;;;;;;50.30;20.85;;;;;;;1.62;92.78;99716.25;5012579;28;20032;-72
2021/12/06 03:50:56;;;;;;;51.00;21.70;;;;;;;1.63;92.85;99723.13;5011914;28;20096;-71
2021/12/06 03:53:21;;;;;;;50.10;20.05;;;;;;;1.63;92.13;99724.84;5009157;28;20030;-71
2021/12/06 03:55:46;;;;;;;51.50;20.40;;;;;;;1.66;92.44;99724.72;5008624;28;20114;-71
2021/12/06 03:58:12;;;;;;;54.97;21.63;;;;;;;1.63;92.72;99717.97;5011247;28;20050;-70
2021/12/06 04:00:38;;;;;;;54.47;20.70;;;;;;;1.61;92.21;99722.34;5005857;28;20029;-70
2021/12/06 04:03:04;;;;;;;51.78;21.23;;;;;;;1.58;91.73;99725.03;5011386;28;20022;-70
2021/12/06 04:05:30;;;;;;;52.97;20.40;;;;;;;1.58;92.28;99731.94;5011566;28;20055;-72
2021/12/06 04:07:55;;;;;;;55.00;22.15;;;;;;;1.62;91.82;99736.09;5010556;28;20057;-71
2021/12/06 04:10:25;;;;;;;46.88;20.42;;;;;;;1.60;91.49;99737.91;5011034;28;20498;-71
2021/12/06 04:12:50;;;;;;;46.47;20.00;;;;;;;1.58;91.66;99744.84;5010628;28;20099;-71
2021/12/06 04:15:16;;;;;;;47.88;19.48;;;;;;;1.42;91.63;99747.19;5011747;28;20026;-71
2021/12/06 04:17:41;;;;;;;42.63;19.27;;;;;;;1.26;92.44;99751.25;5010406;28;20144;-70
2021/12/06 04:20:10;;;;;;;47.85;19.38;;;;;;;1.17;92.73;99748.13;5010668;28;20053;-71
2021/12/06 04:22:36;;;;;;;48.35;19.63;;;;;;;1.15;93.05;99756.81;5010325;28;20034;-71
2021/12/06 04:25:03;;;;;;;45.05;17.17;;;;;;;1.08;92.97;99761.38;5011028;28;20026;-69
2021/12/06 04:27:29;;;;;;;40.63;16.65;;;;;;;1.06;92.64;99758.00;5010984;28;20513;-71
2021/12/06 04:29:55;;;;;;;45.53;18.45;;;;;;;0.98;92.58;99766.91;5011174;28;20060;-71
2021/12/06 04:32:21;;;;;;;40.15;18.35;;;;;;;0.93;92.91;99772.25;5010105;28;20030;-70
2021/12/06 04:34:47;;;;;;;38.22;18.38;;;;;;;0.84;92.98;99773.41;5010786;28;20034;-71
2021/12/06 04:37:12;;;;;;;35.53;17.15;;;;;;;0.76;92.81;99772.00;5010484;28;20116;-71
2021/12/06 04:39:39;;;;;;;42.40;18.65;;;;;;;0.75;92.88;99780.66;5008148;28;20037;-71
2021/12/06 04:42:05;;;;;;;32.47;17.02;;;;;;;0.72;93.18;99785.00;5009115;28;20014;-71
2021/12/06 04:44:31;;;;;;;36.50;18.05;;;;;;;0.69;92.69;99786.84;5009023;28;20034;-72
2021/12/06 04:46:56;;;;;;;40.85;18.38;;;;;;;0.69;93.52;99785.09;5009837;28;20045;-72
2021/12/06 04:49:25;;;;;;;35.30;17.77;;;;;;;0.67;93.71;99781.75;5006920;28;20113;-72
2021/12/06 04:51:52;;;;;;;35.20;17.95;;;;;;;0.64;93.24;99794.75;5007270;28;20145;-71
2021/12/06 04:54:22;;;;;;;36.92;18.30;;;;;;;0.71;93.48;99797.97;5013883;28;20033;-71
2021/12/06 04:56:53;;;;;;;35.08;17.65;;;;;;;0.59;93.51;99791.47;5009828;28;20511;-72
2021/12/06 04:59:26;;;;;;;34.25;17.55;;;;;;;0.60;93.55;99793.19;5007340;28;20038;-71
2021/12/06 05:01:57;;;;;;;35.70;18.10;;;;;;;0.60;93.48;99795.75;5010420;28;20037;-71
2021/12/06 05:04:27;;;;;;;34.15;18.98;;;;;;;0.65;93.39;99800.75;5009938;28;20060;-71
2021/12/06 05:07:06;;;;;;;36.63;17.38;;;;;;;0.61;93.53;99800.00;5008947;28;20180;-72
2021/12/06 05:09:35;;;;;;;32.63;17.58;;;;;;;0.62;93.87;99806.84;5010627;28;20113;-73
2021/12/06 05:12:02;;;;;;;39.83;19.05;;;;;;;0.65;94.03;99811.06;5010084;28;20549;-73
2021/12/06 05:14:28;;;;;;;34.38;17.30;;;;;;;0.67;93.55;99810.13;5009611;28;20080;-73
2021/12/06 05:16:54;;;;;;;32.92;17.83;;;;;;;0.64;93.60;99812.81;5009714;28;20061;-70
2021/12/06 05:19:20;;;;;;;33.00;17.13;;;;;;;0.69;93.60;99813.50;5008463;28;20121;-72
2021/12/06 05:21:46;;;;;;;39.15;18.25;;;;;;;0.65;93.83;99814.50;5009277;28;20053;-71
2021/12/06 05:24:11;;;;;;;32.63;19.52;;;;;;;0.57;93.64;99815.66;5009356;28;20026;-70
2021/12/06 05:26:37;;;;;;;39.45;18.17;;;;;;;0.60;93.66;99818.13;5009200;28;20041;-70
2021/12/06 05:29:05;;;;;;;36.45;18.35;;;;;;;0.61;93.96;99814.66;5008465;28;20030;-71
2021/12/06 05:31:33;;;;;;;38.88;18.70;;;;;;;0.60;93.92;99829.28;5008514;28;20403;-72
2021/12/06 05:34:02;;;;;;;38.20;19.23;;;;;;;0.59;93.87;99834.47;5008933;28;20137;-73
2021/12/06 05:36:28;;;;;;;38.35;19.60;;;;;;;0.56;93.48;99835.44;5008780;28;20030;-71
2021/12/06 05:38:55;;;;;;;33.45;18.58;;;;;;;0.67;94.28;99835.09;5049321;22;20041;-71
2021/12/06 05:41:20;;;;;;;35.03;19.33;;;;;;;0.73;93.51;99842.59;5021247;28;20113;-72
2021/12/06 05:43:46;;;;;;;35.03;19.73;;;;;;;0.63;93.49;99844.66;5027218;28;20118;-70
2021/12/06 05:46:13;;;;;;;39.17;19.88;;;;;;;0.64;93.23;99848.94;5027763;28;20585;-73
2021/12/06 05:48:39;;;;;;;34.25;19.33;;;;;;;0.66;93.39;99846.28;5026614;28;20021;-69
2021/12/06 05:51:04;;;;;;;35.10;18.88;;;;;;;0.62;93.34;99850.69;5027840;28;20083;-71
2021/12/06 05:53:30;;;;;;;41.40;21.52;;;;;;;0.62;93.12;99849.88;5027785;28;20042;-71
2021/12/06 05:55:55;;;;;;;39.03;22.50;;;;;;;0.60;93.36;99843.94;5027017;28;20044;-69
2021/12/06 05:58:26;;;;;;;46.17;26.73;;;;;;;0.63;93.42;99852.41;5027841;28;20049;-69
2021/12/06 06:00:52;;;;;;;35.63;20.10;;;;;;;0.59;93.48;99850.78;5026056;28;20041;-71
2021/12/06 06:03:17;;;;;;;40.97;21.30;;;;;;;0.60;93.48;99862.81;5027976;28;20392;-72
2021/12/06 06:05:43;;;;;;;35.90;19.75;;;;;;;0.62;93.86;99865.34;5028134;28;20041;-69
2021/12/06 06:08:08;;;;;;;35.85;20.55;;;;;;;0.60;93.66;99869.72;5031496;28;20029;-69
2021/12/06 06:10:35;;;;;;;35.92;20.23;;;;;;;0.55;93.66;99866.44;5027490;28;20057;-69
2021/12/06 06:13:03;;;;;;;35.13;19.90;;;;;;;0.56;94.03;99870.72;5026925;28;20064;-70
2021/12/06 06:15:29;;;;;;;38.65;18.92;;;;;;;0.58;93.82;99877.50;5027768;28;20105;-70
2021/12/06 06:17:58;;;;;;;41.65;20.58;;;;;;;0.60;93.68;99882.63;5018378;28;20136;-69
2021/12/06 06:20:47;;;;;;;;;;;;;;;0.60;93.87;99891.19;5020674;28;20033;-70
2021/12/06 06:23:13;;;;;;;;;;;;;;;0.58;93.81;99889.56;5019899;28;19959;-69
2021/12/06 06:25:39;;;;;;;34.45;19.33;;;;;;;0.58;93.68;99892.97;5018523;28;19932;-72
2021/12/06 06:28:06;;;;;;;38.50;22.15;;;;;;;0.56;94.13;99889.63;5023526;28;20529;-73
2021/12/06 06:30:31;;;;;;;35.53;20.08;;;;;;;0.58;94.17;99889.56;5026394;28;20048;-70
2021/12/06 06:32:57;;;;;;;38.53;22.30;;;;;;;0.58;93.83;99898.13;5029542;28;20457;-71
2021/12/06 06:35:23;;;;;;;41.42;22.92;;;;;;;0.63;94.20;99895.41;5026606;28;20114;-70
2021/12/06 06:37:49;;;;;;;43.05;22.35;;;;;;;0.63;94.51;99901.44;5025774;28;20058;-71
2021/12/06 06:40:15;;;;;;;46.85;23.60;;;;;;;0.62;93.70;99904.88;5030526;28;20387;-72
2021/12/06 06:42:40;;;;;;;44.60;23.48;;;;;;;0.60;93.57;99905.84;5017807;28;20037;-68
2021/12/06 06:45:08;;;;;;;37.25;21.30;;;;;;;0.60;93.91;99904.09;5026942;28;20528;-68
2021/12/06 06:47:33;;;;;;;41.33;21.52;;;;;;;0.63;94.24;99910.88;5029247;28;20044;-72
2021/12/06 06:49:58;;;;;;;39.55;22.25;;;;;;;0.67;94.20;99915.06;5011371;28;20037;-67
2021/12/06 06:52:24;;;;;;;42.40;23.23;;;;;;;0.73;93.98;99917.44;5021029;28;20096;-69
2021/12/06 06:54:49;;;;;;;39.00;21.63;;;;;;;0.81;93.76;99924.91;5027297;28;20041;-68
2021/12/06 06:57:15;;;;;;;39.38;22.02;;;;;;;0.79;93.66;99931.88;5025430;28;20033;-69
2021/12/06 06:59:40;;;;;;;43.55;22.80;;;;;;;0.90;95.02;99932.38;5017978;28;20117;-70
2021/12/06 07:02:06;;;;;;;44.47;21.23;;;;;;;0.89;92.85;99928.09;5021796;28;20049;-69
2021/12/06 07:04:32;;;;;;;45.38;23.25;;;;;;;0.81;92.39;99938.66;5027301;28;20064;-69
2021/12/06 07:06:57;;;;;;;41.80;22.02;;;;;;;0.67;92.69;99944.28;5028048;28;20033;-70
2021/12/06 07:09:23;;;;;;;43.88;23.70;;;;;;;0.62;93.36;99946.16;5029600;28;20104;-69
2021/12/06 07:11:50;;;;;;;49.40;23.77;;;;;;;0.64;93.23;99949.53;5026346;28;20116;-69
2021/12/06 07:14:16;;;;;;;52.45;25.10;;;;;;;0.63;93.31;99947.00;5029867;28;20125;-69
2021/12/06 07:16:43;;;;;;;46.85;22.23;;;;;;;0.62;93.02;99940.16;5028393;28;20095;-70
2021/12/06 07:19:09;;;;;;;41.35;22.75;;;;;;;0.62;92.75;99950.47;5022560;28;20704;-70
2021/12/06 07:21:35;;;;;;;46.13;23.88;;;;;;;0.62;93.08;99953.91;5017022;28;20029;-70
2021/12/06 07:24:01;;;;;;;41.47;21.23;;;;;;;0.63;92.63;99957.31;5023170;28;20621;-71
2021/12/06 07:26:26;;;;;;;43.42;22.35;;;;;;;0.64;92.88;99964.19;5014960;28;20030;-70
2021/12/06 07:28:55;;;;;;;49.30;25.20;;;;;;;0.66;93.12;99970.97;5023527;28;20076;-69
2021/12/06 07:31:22;;;;;;;47.05;25.83;;;;;;;0.61;93.34;99970.28;5031225;28;20037;-73
2021/12/06 07:33:48;;;;;;;53.70;30.25;;;;;;;0.60;93.26;99973.75;5021729;28;20466;-69
2021/12/06 07:36:13;;;;;;;50.30;26.85;;;;;;;0.65;93.32;99979.59;5031652;28;20109;-71
2021/12/06 07:38:41;;;;;;;46.25;22.80;;;;;;;0.65;93.41;99982.19;5025634;28;20069;-69
2021/12/06 07:41:12;;;;;;;43.83;23.30;;;;;;;0.63;92.83;99983.09;5030723;28;20040;-71
2021/12/06 07:43:38;;;;;;;42.40;22.38;;;;;;;0.62;93.27;99981.44;5035563;28;20033;-69
2021/12/06 07:46:05;;;;;;;45.25;23.63;;;;;;;0.68;93.36;99987.25;5033991;28;20061;-70
2021/12/06 07:48:31;;;;;;;49.10;24.67;;;;;;;0.68;93.06;99991.56;5045199;28;20387;-69
2021/12/06 07:50:57;;;;;;;48.67;26.48;;;;;;;0.76;92.45;99993.91;5031181;28;20020;-70
2021/12/06 07:53:22;;;;;;;44.85;24.10;;;;;;;0.81;92.01;99992.84;5030651;28;20029;-72
2021/12/06 07:55:48;;;;;;;44.13;23.30;;;;;;;0.76;92.32;99986.16;5031047;28;20430;-71
2021/12/06 07:58:13;;;;;;;44.10;23.77;;;;;;;0.72;92.65;99991.41;5029437;28;20040;-69
2021/12/06 08:00:43;;;;;;;45.03;22.70;;;;;;;0.73;92.37;99990.53;5030436;28;20031;-70
2021/12/06 08:03:10;;;;;;;44.50;23.38;;;;;;;0.82;92.44;99994.56;5030990;28;20021;-69
2021/12/06 08:05:37;;;;;;;50.42;24.55;;;;;;;0.80;92.08;99996.34;5031230;28;20040;-69
2021/12/06 08:08:19;;;;;;;43.40;22.52;;;;;;;0.84;91.31;100008.25;5030495;28;20107;-70
2021/12/06 08:10:50;;;;;;;50.67;27.23;;;;;;;0.81;91.56;100002.34;5030316;28;20041;-70
2021/12/06 08:13:19;;;;;;;49.45;26.75;;;;;;;0.78;92.23;100002.44;5024694;28;20029;-70
2021/12/06 08:15:46;;;;;;;48.72;24.67;;;;;;;0.82;92.76;100004.06;5037114;28;20060;-70
2021/12/06 08:18:11;;;;;;;47.90;25.55;;;;;;;0.85;92.01;100004.75;5042355;28;20062;-71
2021/12/06 08:20:38;;;;;;;50.05;25.13;;;;;;;0.83;91.21;100000.56;5030453;28;20507;-70
2021/12/06 08:23:05;;;;;;;49.20;24.92;;;;;;;0.73;90.93;100000.84;5042157;28;20065;-70
2021/12/06 08:25:31;;;;;;;45.03;23.33;;;;;;;0.78;91.68;100005.88;5030633;28;20041;-71
2021/12/06 08:27:56;;;;;;;45.55;23.33;;;;;;;0.97;91.20;100008.72;5030640;28;20030;-70
2021/12/06 08:30:23;;;;;;;43.97;22.67;;;;;;;0.90;89.96;100009.81;5030324;28;20117;-71
2021/12/06 08:32:54;;;;;;;46.28;24.15;;;;;;;0.92;90.42;100020.91;5029040;28;20025;-72
2021/12/06 08:35:20;;;;;;;48.33;24.15;;;;;;;0.95;90.28;100016.50;5028759;28;20030;-71
2021/12/06 08:37:46;;;;;;;44.08;23.73;;;;;;;0.89;90.28;100021.00;5030492;28;20045;-69
2021/12/06 08:40:11;;;;;;;44.13;23.30;;;;;;;0.95;90.04;100023.41;5025528;28;20673;-69
2021/12/06 08:42:37;;;;;;;43.85;25.30;;;;;;;0.86;90.63;100024.53;5028564;28;20056;-69
2021/12/06 08:45:04;;;;;;;44.78;23.98;;;;;;;0.81;90.56;100025.56;5029104;28;20048;-70
2021/12/06 08:47:29;;;;;;;38.10;22.38;;;;;;;0.86;90.59;100029.72;5029716;28;20036;-69
2021/12/06 08:49:55;;;;;;;50.28;27.73;;;;;;;0.88;90.84;100021.91;5028595;28;20029;-71
2021/12/06 08:52:21;;;;;;;40.80;22.65;;;;;;;0.96;89.56;100028.53;5024331;28;20052;-70
2021/12/06 08:54:46;;;;;;;40.72;22.48;;;;;;;0.89;89.36;100039.06;5030314;28;20503;-72
2021/12/06 08:57:12;;;;;;;42.92;22.13;;;;;;;0.88;89.20;100037.38;5029223;28;20056;-69
2021/12/06 08:59:37;;;;;;;40.45;21.50;;;;;;;0.82;88.88;100035.84;5029604;28;20150;-68
2021/12/06 09:02:03;;;;;;;39.00;22.23;;;;;;;0.92;89.01;100031.22;5029338;28;20608;-69
2021/12/06 09:04:34;;;;;;;41.38;21.13;;;;;;;1.02;89.37;100035.22;5028407;28;20513;-70
2021/12/06 09:07:01;;;;;;;36.58;20.30;;;;;;;0.99;88.50;100029.31;5028038;28;20118;-70
2021/12/06 09:09:27;;;;;;;32.85;18.25;;;;;;;0.92;87.09;100033.81;5029481;28;20030;-67
2021/12/06 09:11:55;;;;;;;38.10;20.70;;;;;;;0.96;87.72;100040.56;5029534;28;20045;-68
2021/12/06 09:14:22;;;;;;;37.40;19.42;;;;;;;0.94;87.21;100052.69;5029859;28;20030;-69
2021/12/06 09:16:48;;;;;;;39.90;20.45;;;;;;;1.06;87.03;100054.88;5029145;28;20045;-70
2021/12/06 09:19:15;;;;;;;37.33;20.40;;;;;;;1.06;86.63;100054.03;5028177;28;20033;-70
2021/12/06 09:21:43;;;;;;;36.53;20.77;;;;;;;1.04;85.69;100060.97;5025161;28;20040;-68
2021/12/06 09:24:13;;;;;;;36.47;19.60;;;;;;;0.98;87.00;100062.03;5020826;28;20021;-68
2021/12/06 09:26:39;;;;;;;34.60;19.08;;;;;;;1.00;86.02;100065.38;5026402;28;20040;-68
2021/12/06 09:29:05;;;;;;;33.08;19.25;;;;;;;1.02;86.22;100061.03;5028331;28;20025;-68
2021/12/06 09:31:31;;;;;;;34.95;19.48;;;;;;;1.02;86.59;100065.34;5024917;28;20066;-68
2021/12/06 09:33:57;;;;;;;35.13;19.55;;;;;;;1.02;86.38;100066.19;5027046;28;20083;-67
2021/12/06 09:36:23;;;;;;;37.20;20.92;;;;;;;1.03;86.03;100067.03;5028304;28;20443;-66
2021/12/06 09:38:48;;;;;;;34.28;20.20;;;;;;;1.01;86.16;100063.69;5026373;28;20095;-66
2021/12/06 09:41:19;;;;;;;31.95;18.70;;;;;;;1.01;85.50;100067.09;5026527;28;20041;-66
2021/12/06 09:43:46;;;;;;;33.83;19.35;;;;;;;1.00;85.42;100072.28;5032309;28;20022;-65
2021/12/06 09:46:12;;;;;;;33.47;19.55;;;;;;;0.96;85.93;100067.25;5027686;28;20523;-67
2021/12/06 09:48:40;;;;;;;37.15;18.92;;;;;;;0.96;84.80;100059.50;5028417;28;20017;-68
2021/12/06 09:51:09;;;;;;;30.10;16.20;;;;;;;0.99;84.78;100053.38;5029061;28;20021;-67
2021/12/06 09:53:37;;;;;;;29.63;17.05;;;;;;;1.04;84.93;100067.00;5028159;28;20037;-67
2021/12/06 09:56:10;;;;;;;35.53;19.35;;;;;;;1.06;84.18;100065.22;5028880;28;20033;-65
2021/12/06 09:58:36;;;;;;;36.30;20.00;;;;;;;1.07;84.08;100068.63;5024830;28;20029;-67
2021/12/06 10:01:11;;;;;;;36.15;19.65;;;;;;;1.14;84.35;100063.22;5027205;28;20718;-66
2021/12/06 10:03:37;;;;;;;39.38;19.50;;;;;;;1.28;84.54;100062.78;5026411;28;20382;-65
2021/12/06 10:06:04;;;;;;;36.67;18.23;;;;;;;1.32;83.18;100064.38;5028580;28;20100;-67
2021/12/06 10:08:37;;;;;;;38.83;19.42;;;;;;;1.34;82.65;100066.91;5027715;28;20465;-68
2021/12/06 10:11:04;;;;;;;32.33;18.63;;;;;;;1.20;82.44;100075.09;5023200;28;20038;-65
2021/12/06 10:13:30;;;;;;;32.50;18.50;;;;;;;1.17;83.10;100075.19;5023097;28;20037;-67
2021/12/06 10:15:55;;;;;;;33.03;19.25;;;;;;;1.24;82.61;100062.94;5027253;28;20033;-69
2021/12/06 10:18:21;;;;;;;34.05;19.50;;;;;;;1.26;83.41;100058.56;5027478;28;20021;-68
2021/12/06 10:20:50;;;;;;;38.22;21.15;;;;;;;1.18;83.80;100067.38;5027557;28;20049;-69
2021/12/06 10:23:16;;;;;;;;;;;;;;;1.27;82.95;100071.44;5028346;28;20033;-67
2021/12/06 10:25:44;;;;;;;33.50;18.83;;;;;;;1.28;82.26;100065.38;5026641;28;20011;-69
2021/12/06 10:28:12;;;;;;;41.05;20.95;;;;;;;1.28;82.32;100059.34;5027092;28;20037;-68
2021/12/06 10:30:49;;;;;;;35.88;19.90;;;;;;;1.36;82.65;100052.19;5027587;28;20491;-67
2021/12/06 10:33:19;;;;;;;36.00;18.63;;;;;;;1.47;82.46;100054.44;5026881;28;20044;-67
2021/12/06 10:35:48;;;;;;;38.03;19.88;;;;;;;1.47;82.72;100049.25;5027932;28;20124;-67
2021/12/06 10:38:28;;;;;;;39.85;22.02;;;;;;;1.47;81.99;100050.09;5027411;28;20052;-68
2021/12/06 10:41:02;;;;;;;40.47;20.75;;;;;;;1.30;82.14;100062.72;5029487;28;20120;-70
2021/12/06 10:43:28;;;;;;;34.63;20.48;;;;;;;1.30;82.51;100055.84;5031489;28;20034;-67
2021/12/06 10:45:55;;;;;;;41.50;21.42;;;;;;;1.33;82.67;100057.47;5030634;28;20045;-67
2021/12/06 10:48:27;;;;;;;38.88;21.27;;;;;;;1.38;82.20;100060.75;5032660;28;20072;-70
2021/12/06 10:50:53;;;;;;;39.25;20.25;;;;;;;1.38;81.99;100058.19;5032279;28;20057;-67
2021/12/06 10:53:47;;;;;;;33.58;19.02;;;;;;;1.43;81.06;100048.53;5031507;28;20139;-66
2021/12/06 10:56:19;;;;;;;36.40;20.63;;;;;;;1.38;82.13;100050.44;5024505;28;20049;-69
2021/12/06 10:58:45;;;;;;;35.35;19.92;;;;;;;1.29;83.09;100051.56;5031535;28;20527;-71
2021/12/06 11:01:14;;;;;;;36.28;20.77;;;;;;;1.26;82.07;100055.97;5031551;28;20129;-71
2021/12/06 11:03:47;;;;;;;39.00;22.27;;;;;;;1.24;83.16;100055.19;5031169;28;20108;-69
2021/12/06 11:06:21;;;;;;;38.13;21.50;;;;;;;1.16;81.97;100050.28;5032510;28;20017;-69
2021/12/06 11:08:54;;;;;;;43.05;21.52;;;;;;;1.18;83.08;100054.47;5029912;28;20125;-70
2021/12/06 11:11:27;;;;;;;42.88;23.45;;;;;;;1.11;82.58;100050.44;5031828;28;20037;-72
2021/12/06 11:14:00;;;;;;;45.13;22.58;;;;;;;1.04;82.90;100059.25;5031375;28;20531;-69
2021/12/06 11:16:28;;;;;;;41.58;23.15;;;;;;;1.02;84.23;100066.19;5031565;28;20083;-71
2021/12/06 11:19:03;;;;;;;45.65;22.95;;;;;;;0.99;84.23;100057.69;5031398;28;20117;-71
2021/12/06 11:21:31;;;;;;;41.05;22.45;;;;;;;0.95;83.75;100055.22;5030555;28;20025;-68
2021/12/06 11:23:59;;;;;;;44.28;23.17;;;;;;;1.00;83.25;100052.47;5032004;28;20025;-68
2021/12/06 11:26:25;;;;;;;41.28;23.70;;;;;;;1.04;82.38;100061.84;5031210;28;20041;-69
2021/12/06 11:28:51;;;;;;;40.67;23.77;;;;;;;1.08;82.77;100050.53;5030711;28;20033;-69
2021/12/06 11:31:18;;;;;;;45.22;23.45;;;;;;;1.17;82.53;100050.22;5029679;28;20121;-70
2021/12/06 11:33:55;;;;;;;45.45;23.38;;;;;;;1.16;82.50;100042.53;5030970;28;20355;-67
2021/12/06 11:36:23;;;;;;;43.88;22.92;;;;;;;1.14;81.70;100039.97;5027028;28;20021;-69
2021/12/06 11:38:56;;;;;;;50.30;24.27;;;;;;;1.12;82.22;100031.47;5048588;22;20103;-71